Time;durP1;ratioP1;P1;durP2;ratioP2;P2;SDS_P1;SDS_P2;PMS_P1;PMS_P2;Temp;Humidity;BMP_temperature;BMP_pressure;BME280_temperature;BME280_humidity;BME280_pressure;Samples;Min_cycle;Max_cycle;Signal;HPM_P1;HPM_P2
2023/04/23 00:01:47;;;;;;;;;1.00;1.00;;;;;;;;4980877;28;45437;-75
2023/04/23 00:04:14;;;;;;;;;1.75;1.00;;;;;;;;4982968;28;45487;-76
2023/04/23 00:06:41;;;;;;;;;2.00;1.00;;;;;;;;4986684;28;46418;-75
2023/04/23 00:09:06;;;;;;;;;1.00;1.00;;;;;;;;4980875;28;45456;-74
2023/04/23 00:11:32;;;;;;;;;1.50;1.00;;;;;;;;4991454;28;45501;-74
2023/04/23 00:13:57;;;;;;;;;2.00;2.00;;;;;;;;4980595;28;45489;-73
2023/04/23 00:16:23;;;;;;;;;2.25;2.25;;;;;;;;4989751;28;45353;-73
2023/04/23 00:18:48;;;;;;;;;1.25;1.00;;;;;;;;4981436;28;45455;-74
2023/04/23 00:21:14;;;;;;;;;1.00;1.00;;;;;;;;4993118;28;45341;-74
2023/04/23 00:23:40;;;;;;;;;1.00;1.00;;;;;;;;4976277;28;45500;-75
2023/04/23 00:26:06;;;;;;;;;1.00;1.00;;;;;;;;4982653;28;46052;-75
2023/04/23 00:28:31;;;;;;;;;3.50;1.50;;;;;;;;4984431;28;45444;-75
2023/04/23 00:30:56;;;;;;;;;4.25;1.25;;;;;;;;4994997;28;45440;-74
2023/04/23 00:33:21;;;;;;;;;2.00;1.25;;;;;;;;4985815;28;45399;-74
2023/04/23 00:35:47;;;;;;;;;1.25;1.25;;;;;;;;4978512;28;46206;-73
2023/04/23 00:38:12;;;;;;;;;1.50;1.50;;;;;;;;4966433;28;45430;-73
2023/04/23 00:40:37;;;;;;;;;1.00;1.00;;;;;;;;4957741;28;45637;-74
2023/04/23 00:43:03;;;;;;;;;1.00;1.00;;;;;;;;4992562;28;45399;-73
2023/04/23 00:45:28;;;;;;;;;1.00;1.00;;;;;;;;4983196;28;47189;-73
2023/04/23 00:47:54;;;;;;;;;0.50;0.50;;;;;;;;4982286;28;45528;-74
2023/04/23 00:50:20;;;;;;;;;2.75;1.25;;;;;;;;4981449;28;45354;-74
2023/04/23 00:52:45;;;;;;;;;1.75;1.75;;;;;;;;4981956;28;45315;-74
2023/04/23 00:55:10;;;;;;;;;1.00;1.00;;;;;;;;4983096;28;45982;-74
2023/04/23 00:57:36;;;;;;;;;2.00;2.00;;;;;;;;4981131;28;45389;-73
2023/04/23 01:00:02;;;;;;;;;2.00;1.00;;;;;;;;4987475;28;45490;-74
2023/04/23 01:02:29;;;;;;;;;1.50;1.25;;;;;;;;4990380;28;45270;-74
2023/04/23 01:04:55;;;;;;;;;0.75;0.75;;;;;;;;4975756;28;45769;-75
2023/04/23 01:07:20;;;;;;;;;1.00;1.00;;;;;;;;4979759;28;45451;-75
2023/04/23 01:09:46;;;;;;;;;1.00;1.00;;;;;;;;4986477;28;45373;-75
2023/04/23 01:12:12;;;;;;;;;0.75;0.75;;;;;;;;4987179;28;45485;-76
2023/04/23 01:14:37;;;;;;;;;2.50;2.00;;;;;;;;4982573;28;46385;-75
2023/04/23 01:17:03;;;;;;;;;1.75;1.75;;;;;;;;4980197;28;45536;-74
2023/04/23 01:19:28;;;;;;;;;1.75;1.75;;;;;;;;4988639;28;45480;-74
2023/04/23 01:21:55;;;;;;;;;3.00;1.75;;;;;;;;4985289;28;45436;-74
2023/04/23 01:24:20;;;;;;;;;2.00;2.00;;;;;;;;4984917;28;46210;-73
2023/04/23 01:26:45;;;;;;;;;2.00;1.00;;;;;;;;4992002;28;45452;-74
2023/04/23 01:29:10;;;;;;;;;2.50;1.25;;;;;;;;4975502;28;45427;-74
2023/04/23 01:31:36;;;;;;;;;1.00;1.00;;;;;;;;4990595;28;45784;-74
2023/04/23 01:34:01;;;;;;;;;1.00;1.00;;;;;;;;4986032;28;45597;-73
2023/04/23 01:36:27;;;;;;;;;1.00;1.00;;;;;;;;4977839;28;45381;-73
2023/04/23 01:38:52;;;;;;;;;1.75;1.75;;;;;;;;4977189;28;45375;-74
2023/04/23 01:41:17;;;;;;;;;1.50;1.50;;;;;;;;4976822;28;45514;-74
2023/04/23 01:43:43;;;;;;;;;1.50;1.50;;;;;;;;4976651;28;45685;-74
2023/04/23 01:46:09;;;;;;;;;2.00;2.00;;;;;;;;4975808;28;45838;-73
2023/04/23 01:48:35;;;;;;;;;2.75;2.00;;;;;;;;4976992;28;45485;-74
2023/04/23 01:51:00;;;;;;;;;0.25;0.25;;;;;;;;4976334;28;45480;-73
2023/04/23 01:53:25;;;;;;;;;2.00;2.00;;;;;;;;4976428;28;46242;-74
2023/04/23 01:55:51;;;;;;;;;1.00;1.00;;;;;;;;4975131;28;46367;-73
2023/04/23 01:58:16;;;;;;;;;1.75;1.00;;;;;;;;4976487;28;45470;-73
2023/04/23 02:00:42;;;;;;;;;1.25;1.25;;;;;;;;4976371;28;45459;-74
2023/04/23 02:03:07;;;;;;;;;1.00;1.00;;;;;;;;4976395;28;45838;-75
2023/04/23 02:05:34;;;;;;;;;2.00;2.00;;;;;;;;4976771;28;45424;-74
2023/04/23 02:07:59;;;;;;;;;3.00;3.00;;;;;;;;4975360;28;45420;-74
2023/04/23 02:10:24;;;;;;;;;1.00;0.50;;;;;;;;4976248;28;45559;-74
2023/04/23 02:12:50;;;;;;;;;3.00;2.00;;;;;;;;4974784;28;45354;-75
2023/04/23 02:15:15;;;;;;;;;3.50;2.50;;;;;;;;4975961;28;45175;-74
2023/04/23 02:17:40;;;;;;;;;2.00;1.00;;;;;;;;4975956;28;45226;-75
2023/04/23 02:20:08;;;;;;;;;1.00;1.00;;;;;;;;4975984;28;45350;-75
2023/04/23 02:22:33;;;;;;;;;1.00;1.00;;;;;;;;4975935;28;45387;-75
2023/04/23 02:24:59;;;;;;;;;2.00;2.00;;;;;;;;4974312;28;45342;-76
2023/04/23 02:27:24;;;;;;;;;1.75;1.75;;;;;;;;4975770;28;45378;-75
2023/04/23 02:29:50;;;;;;;;;1.00;1.00;;;;;;;;4975907;28;45258;-75
2023/04/23 02:32:15;;;;;;;;;1.25;1.25;;;;;;;;4975094;28;45999;-75
2023/04/23 02:34:41;;;;;;;;;3.25;3.25;;;;;;;;4975565;28;45409;-75
2023/04/23 02:37:06;;;;;;;;;3.00;2.00;;;;;;;;4975932;28;45523;-74
2023/04/23 02:39:31;;;;;;;;;2.00;2.00;;;;;;;;4975948;28;45442;-76
2023/04/23 02:41:57;;;;;;;;;4.50;1.25;;;;;;;;4975620;28;45859;-75
2023/04/23 02:44:23;;;;;;;;;5.50;2.50;;;;;;;;4975551;28;45580;-76
2023/04/23 02:46:48;;;;;;;;;2.00;1.75;;;;;;;;4975247;28;45413;-76
2023/04/23 02:49:14;;;;;;;;;1.75;1.00;;;;;;;;4975662;28;45782;-76
2023/04/23 02:51:39;;;;;;;;;4.00;2.00;;;;;;;;4975361;28;46941;-75
2023/04/23 02:54:04;;;;;;;;;2.00;1.25;;;;;;;;4975495;28;45493;-75
2023/04/23 02:56:30;;;;;;;;;2.00;2.00;;;;;;;;4974087;28;45393;-75
2023/04/23 02:58:55;;;;;;;;;3.75;1.00;;;;;;;;4974281;28;45407;-75
2023/04/23 03:01:20;;;;;;;;;1.00;1.00;;;;;;;;4975099;28;46149;-75
2023/04/23 03:03:46;;;;;;;;;2.00;2.00;;;;;;;;4975621;28;45346;-75
2023/04/23 03:06:11;;;;;;;;;1.75;1.75;;;;;;;;4975356;28;45441;-75
2023/04/23 03:08:36;;;;;;;;;2.00;1.00;;;;;;;;4975289;28;45494;-75
2023/04/23 03:11:01;;;;;;;;;1.25;1.25;;;;;;;;4975295;28;45451;-75
2023/04/23 03:13:26;;;;;;;;;3.25;1.25;;;;;;;;4975382;28;45448;-75
2023/04/23 03:15:53;;;;;;;;;2.00;2.00;;;;;;;;4975282;28;45293;-75
2023/04/23 03:18:18;;;;;;;;;4.00;1.00;;;;;;;;4975315;28;45529;-76
2023/04/23 03:20:43;;;;;;;;;3.00;2.50;;;;;;;;4974786;28;45833;-76
2023/04/23 03:23:08;;;;;;;;;2.25;2.00;;;;;;;;4975388;28;45293;-76
2023/04/23 03:25:34;;;;;;;;;4.50;3.50;;;;;;;;4975103;28;45531;-76
2023/04/23 03:27:59;;;;;;;;;2.00;2.00;;;;;;;;4975009;28;45396;-76
2023/04/23 03:30:25;;;;;;;;;1.50;1.25;;;;;;;;4974806;28;46370;-75
2023/04/23 03:32:52;;;;;;;;;2.00;2.00;;;;;;;;4975258;28;45309;-75
2023/04/23 03:35:17;;;;;;;;;4.00;3.00;;;;;;;;4975075;28;45404;-74
2023/04/23 03:37:42;;;;;;;;;5.75;3.00;;;;;;;;4974896;28;45554;-74
2023/04/23 03:40:08;;;;;;;;;2.75;2.50;;;;;;;;4974771;28;47288;-75
2023/04/23 03:42:33;;;;;;;;;3.25;2.25;;;;;;;;4975318;28;45526;-75
2023/04/23 03:45:01;;;;;;;;;2.75;2.75;;;;;;;;4978195;28;45431;-74
2023/04/23 03:47:26;;;;;;;;;1.75;1.75;;;;;;;;4975948;28;45341;-75
2023/04/23 03:49:52;;;;;;;;;2.00;2.00;;;;;;;;4978051;28;47129;-73
2023/04/23 03:52:17;;;;;;;;;3.75;2.75;;;;;;;;4978279;28;45422;-75
2023/04/23 03:54:42;;;;;;;;;3.50;2.25;;;;;;;;4978261;28;45270;-75
2023/04/23 03:57:08;;;;;;;;;2.00;2.00;;;;;;;;4978635;28;45322;-75
2023/04/23 03:59:33;;;;;;;;;2.50;2.50;;;;;;;;4977939;28;45347;-76
2023/04/23 04:01:58;;;;;;;;;3.50;2.00;;;;;;;;4978648;28;45270;-75
2023/04/23 04:04:24;;;;;;;;;1.00;1.00;;;;;;;;4978726;28;45373;-76
2023/04/23 04:06:49;;;;;;;;;2.25;2.00;;;;;;;;4978816;28;45351;-76
2023/04/23 04:09:15;;;;;;;;;1.00;1.00;;;;;;;;4979110;28;46063;-75
2023/04/23 04:11:40;;;;;;;;;2.00;2.00;;;;;;;;4979101;28;45539;-76
2023/04/23 04:14:06;;;;;;;;;1.00;1.00;;;;;;;;4977876;28;45433;-75
2023/04/23 04:16:31;;;;;;;;;4.00;2.00;;;;;;;;4978031;28;45344;-76
2023/04/23 04:18:56;;;;;;;;;2.25;1.00;;;;;;;;4977547;28;45399;-75
2023/04/23 04:21:21;;;;;;;;;2.00;1.00;;;;;;;;4977730;28;45575;-76
2023/04/23 04:23:47;;;;;;;;;6.00;4.00;;;;;;;;4978112;28;45404;-75
2023/04/23 04:26:14;;;;;;;;;3.00;1.50;;;;;;;;4977830;28;45437;-75
2023/04/23 04:28:39;;;;;;;;;3.00;2.00;;;;;;;;4976005;28;46254;-76
2023/04/23 04:31:05;;;;;;;;;3.50;2.00;;;;;;;;4977659;28;45405;-75
2023/04/23 04:33:31;;;;;;;;;3.00;3.00;;;;;;;;4977978;28;45468;-75
2023/04/23 04:35:58;;;;;;;;;3.75;2.75;;;;;;;;4977563;28;45334;-75
2023/04/23 04:38:23;;;;;;;;;2.75;2.25;;;;;;;;4977433;28;46250;-76
2023/04/23 04:40:49;;;;;;;;;1.25;1.25;;;;;;;;4977369;28;45552;-76
2023/04/23 04:43:15;;;;;;;;;2.00;2.00;;;;;;;;4977491;28;45336;-75
2023/04/23 04:45:41;;;;;;;;;2.50;2.50;;;;;;;;4977618;28;45625;-76
2023/04/23 04:48:06;;;;;;;;;2.75;2.75;;;;;;;;4974571;28;47089;-75
2023/04/23 04:50:31;;;;;;;;;2.50;2.50;;;;;;;;4977391;28;45520;-75
2023/04/23 04:52:56;;;;;;;;;2.00;2.00;;;;;;;;4977171;28;45433;-75
2023/04/23 04:55:22;;;;;;;;;4.75;3.00;;;;;;;;4976825;28;45504;-75
2023/04/23 04:57:47;;;;;;;;;1.75;1.75;;;;;;;;4977086;28;46150;-75
2023/04/23 05:00:21;;;;;;;;;3.75;2.75;;;;;;;;4977248;28;45460;-74
2023/04/23 05:02:47;;;;;;;;;4.50;3.25;;;;;;;;4974618;28;45510;-75
2023/04/23 05:05:12;;;;;;;;;4.00;2.50;;;;;;;;4977098;28;45586;-75
2023/04/23 05:07:37;;;;;;;;;4.00;3.25;;;;;;;;4976787;28;47171;-76
2023/04/23 05:10:02;;;;;;;;;4.00;4.00;;;;;;;;4977130;28;45454;-75
2023/04/23 05:12:28;;;;;;;;;5.00;4.00;;;;;;;;4977116;28;45864;-76
2023/04/23 05:14:53;;;;;;;;;3.50;3.50;;;;;;;;4976863;28;45374;-75
2023/04/23 05:17:18;;;;;;;;;4.25;3.75;;;;;;;;4977161;28;47205;-75
2023/04/23 05:19:43;;;;;;;;;4.75;3.00;;;;;;;;4977057;28;45340;-76
2023/04/23 05:22:08;;;;;;;;;4.00;4.00;;;;;;;;4977343;28;45808;-75
2023/04/23 05:24:34;;;;;;;;;2.50;2.50;;;;;;;;4977296;28;45310;-75
2023/04/23 05:27:00;;;;;;;;;3.00;3.00;;;;;;;;4976727;28;46130;-75
2023/04/23 05:29:25;;;;;;;;;3.00;3.00;;;;;;;;4977186;28;45330;-75
2023/04/23 05:31:51;;;;;;;;;1.75;1.75;;;;;;;;4977043;28;45438;-74
2023/04/23 05:34:16;;;;;;;;;3.00;3.00;;;;;;;;4976812;28;45422;-75
2023/04/23 05:36:41;;;;;;;;;6.25;3.75;;;;;;;;4976315;28;45424;-74
2023/04/23 05:39:06;;;;;;;;;3.00;3.00;;;;;;;;4976739;28;45549;-76
2023/04/23 05:41:31;;;;;;;;;2.75;2.75;;;;;;;;4976330;28;45322;-75
2023/04/23 05:43:57;;;;;;;;;3.00;3.00;;;;;;;;4976655;28;45417;-74
2023/04/23 05:46:22;;;;;;;;;3.00;1.50;;;;;;;;4975065;28;46548;-76
2023/04/23 05:48:47;;;;;;;;;2.50;2.00;;;;;;;;4976281;28;45396;-74
2023/04/23 05:51:12;;;;;;;;;2.00;2.00;;;;;;;;4976687;28;45535;-74
2023/04/23 05:53:37;;;;;;;;;2.00;2.00;;;;;;;;4976517;28;45259;-74
2023/04/23 05:56:03;;;;;;;;;2.75;2.75;;;;;;;;4975995;28;45503;-74
2023/04/23 05:58:28;;;;;;;;;2.50;2.50;;;;;;;;4974118;28;46367;-74
2023/04/23 06:00:53;;;;;;;;;3.00;2.00;;;;;;;;4975800;28;45376;-74
2023/04/23 06:03:18;;;;;;;;;3.50;2.75;;;;;;;;4975512;28;45303;-74
2023/04/23 06:05:44;;;;;;;;;3.00;3.00;;;;;;;;4974293;28;46496;-74
2023/04/23 06:08:09;;;;;;;;;4.00;4.00;;;;;;;;4972889;28;45381;-74
2023/04/23 06:10:34;;;;;;;;;5.50;2.75;;;;;;;;4974025;28;45457;-75
2023/04/23 06:13:00;;;;;;;;;2.00;2.00;;;;;;;;4973832;28;45456;-74
2023/04/23 06:15:25;;;;;;;;;6.25;3.00;;;;;;;;4975207;28;45593;-74
2023/04/23 06:17:51;;;;;;;;;1.00;1.00;;;;;;;;4976045;28;45412;-74
2023/04/23 06:20:16;;;;;;;;;1.50;1.25;;;;;;;;4976095;28;45864;-74
2023/04/23 06:22:41;;;;;;;;;4.50;4.50;;;;;;;;4975817;28;45552;-76
2023/04/23 06:25:07;;;;;;;;;4.50;2.50;;;;;;;;4975611;28;45541;-76
2023/04/23 06:27:32;;;;;;;;;2.75;2.00;;;;;;;;4975500;28;45492;-77
2023/04/23 06:29:58;;;;;;;;;3.00;3.00;;;;;;;;4976035;28;45473;-76
2023/04/23 06:32:23;;;;;;;;;2.50;2.50;;;;;;;;4976189;28;45431;-77
2023/04/23 06:34:48;;;;;;;;;4.25;2.25;;;;;;;;4975626;28;45554;-76
2023/04/23 06:37:13;;;;;;;;;2.75;1.75;;;;;;;;4975752;28;45513;-75
2023/04/23 06:39:39;;;;;;;;;4.00;2.25;;;;;;;;4974367;28;45574;-76
2023/04/23 06:42:04;;;;;;;;;3.50;3.50;;;;;;;;4975688;28;45448;-75
2023/04/23 06:44:29;;;;;;;;;2.00;2.00;;;;;;;;4975572;28;45559;-76
2023/04/23 06:46:55;;;;;;;;;3.75;3.00;;;;;;;;4975568;28;45529;-77
2023/04/23 06:49:20;;;;;;;;;3.75;3.75;;;;;;;;4975824;28;45467;-77
2023/04/23 06:51:45;;;;;;;;;3.00;3.00;;;;;;;;4975633;28;45464;-76
2023/04/23 06:54:10;;;;;;;;;3.75;2.75;;;;;;;;4975226;28;45533;-75
2023/04/23 06:56:36;;;;;;;;;5.00;3.50;;;;;;;;4975546;28;45551;-76
2023/04/23 06:59:01;;;;;;;;;2.50;2.50;;;;;;;;4975556;28;45400;-77
2023/04/23 07:01:26;;;;;;;;;3.00;3.00;;;;;;;;4975500;28;45401;-76
2023/04/23 07:03:53;;;;;;;;;5.75;2.75;;;;;;;;4975247;28;45466;-76
2023/04/23 07:06:18;;;;;;;;;5.00;4.00;;;;;;;;4975296;28;45296;-76
2023/04/23 07:08:44;;;;;;;;;5.00;2.25;;;;;;;;4975356;28;45230;-76
2023/04/23 07:11:09;;;;;;;;;3.25;3.25;;;;;;;;4974278;28;45547;-78
2023/04/23 07:13:34;;;;;;;;;6.50;4.75;;;;;;;;4975224;28;45763;-78
2023/04/23 07:16:00;;;;;;;;;7.00;3.50;;;;;;;;4975737;28;45277;-78
2023/04/23 07:18:25;;;;;;;;;4.75;3.00;;;;;;;;4975949;28;45331;-78
2023/04/23 07:20:50;;;;;;;;;6.00;5.00;;;;;;;;4976706;28;45286;-77
2023/04/23 07:23:15;;;;;;;;;4.50;4.25;;;;;;;;4976764;28;45366;-78
2023/04/23 07:25:40;;;;;;;;;6.00;4.25;;;;;;;;4976340;28;45210;-78
2023/04/23 07:28:06;;;;;;;;;4.00;3.75;;;;;;;;4975161;28;45481;-76
2023/04/23 07:30:31;;;;;;;;;6.25;5.50;;;;;;;;4975218;28;45377;-76
2023/04/23 07:32:56;;;;;;;;;4.00;4.00;;;;;;;;4975554;28;45673;-77
2023/04/23 07:35:21;;;;;;;;;4.75;4.75;;;;;;;;4974885;28;45373;-77
2023/04/23 07:37:52;;;;;;;;;7.50;6.25;;;;;;;;4975188;28;45540;-75
2023/04/23 07:40:17;;;;;;;;;4.00;4.00;;;;;;;;4975566;28;45361;-76
2023/04/23 07:42:42;;;;;;;;;7.00;4.50;;;;;;;;4974949;28;47373;-76
2023/04/23 07:45:08;;;;;;;;;5.75;5.75;;;;;;;;4974922;28;45418;-76
2023/04/23 07:47:33;;;;;;;;;6.50;6.50;;;;;;;;4975237;28;45473;-77
2023/04/23 07:49:58;;;;;;;;;9.00;6.25;;;;;;;;4956597;28;45569;-76
2023/04/23 07:52:23;;;;;;;;;8.75;7.75;;;;;;;;4955452;28;45429;-78
2023/04/23 07:54:49;;;;;;;;;7.25;7.25;;;;;;;;4955573;28;45434;-76
2023/04/23 07:57:15;;;;;;;;;8.75;7.25;;;;;;;;4955995;28;45445;-76
2023/04/23 07:59:40;;;;;;;;;6.75;6.75;;;;;;;;4960572;28;45338;-75
2023/04/23 08:02:05;;;;;;;;;10.00;10.00;;;;;;;;4973204;28;47522;-76
2023/04/23 08:04:31;;;;;;;;;6.50;6.50;;;;;;;;4974867;28;45460;-77
2023/04/23 08:06:56;;;;;;;;;8.25;8.00;;;;;;;;4975211;28;45409;-77
2023/04/23 08:09:21;;;;;;;;;9.00;9.00;;;;;;;;4975438;28;45374;-78
2023/04/23 08:11:47;;;;;;;;;8.00;8.00;;;;;;;;4974909;28;45392;-79
2023/04/23 08:14:12;;;;;;;;;8.75;8.00;;;;;;;;4975884;28;45397;-79
2023/04/23 08:16:37;;;;;;;;;7.00;7.00;;;;;;;;4975731;28;45438;-79
2023/04/23 08:19:04;;;;;;;;;9.75;8.00;;;;;;;;4975028;28;45476;-78
2023/04/23 08:21:30;;;;;;;;;9.00;9.00;;;;;;;;4974866;28;46299;-79
2023/04/23 08:23:55;;;;;;;;;9.50;9.50;;;;;;;;4973524;28;45434;-79
2023/04/23 08:26:22;;;;;;;;;8.25;7.00;;;;;;;;4975204;28;45302;-80
2023/04/23 08:28:47;;;;;;;;;8.50;8.50;;;;;;;;4976349;28;45309;-79
2023/04/23 08:31:13;;;;;;;;;11.00;10.00;;;;;;;;4978154;28;45412;-79
2023/04/23 08:33:38;;;;;;;;;9.25;7.75;;;;;;;;4977583;28;45317;-79
2023/04/23 08:36:03;;;;;;;;;7.75;7.75;;;;;;;;4978201;28;45255;-79
2023/04/23 08:38:29;;;;;;;;;11.00;8.00;;;;;;;;4978104;28;45445;-79
2023/04/23 08:40:56;;;;;;;;;7.75;7.25;;;;;;;;4978304;28;45895;-79
2023/04/23 08:43:27;;;;;;;;;9.25;8.50;;;;;;;;4970911;28;45404;-79
2023/04/23 08:45:52;;;;;;;;;8.75;7.75;;;;;;;;4974041;28;45528;-79
2023/04/23 08:48:18;;;;;;;;;9.00;8.25;;;;;;;;4973128;28;45468;-79
2023/04/23 08:50:43;;;;;;;;;8.00;8.00;;;;;;;;4992533;28;46944;-79
2023/04/23 08:53:09;;;;;;;;;6.25;6.00;;;;;;;;4984443;28;45482;-81
2023/04/23 08:55:35;;;;;;;;;10.75;7.50;;;;;;;;4986135;28;45550;-80
2023/04/23 08:58:02;;;;;;;;;9.50;8.00;;;;;;;;4977038;28;45321;-79
2023/04/23 09:00:28;;;;;;;;;8.75;8.00;;;;;;;;4992994;28;46087;-78
2023/04/23 09:02:53;;;;;;;;;7.25;7.00;;;;;;;;4975122;28;45502;-79
2023/04/23 09:05:18;;;;;;;;;9.00;9.00;;;;;;;;4985546;28;45409;-80
2023/04/23 09:07:44;;;;;;;;;11.00;9.25;;;;;;;;4984762;28;45372;-78
2023/04/23 09:10:13;;;;;;;;;9.75;7.50;;;;;;;;4992468;28;45440;-76
2023/04/23 09:12:39;;;;;;;;;10.50;7.75;;;;;;;;4980303;28;45292;-85
2023/04/23 09:15:09;;;;;;;;;12.75;12.75;;;;;;;;4990006;28;45412;-85
2023/04/23 09:17:35;;;;;;;;;10.00;10.00;;;;;;;;4978373;28;45494;-84
2023/04/23 09:20:01;;;;;;;;;10.00;8.50;;;;;;;;4992246;28;45522;-85
2023/04/23 09:22:39;;;;;;;;;10.50;10.50;;;;;;;;4981575;28;45402;-85
2023/04/23 09:25:06;;;;;;;;;9.00;9.00;;;;;;;;4990359;28;45461;-85
2023/04/23 09:27:31;;;;;;;;;8.75;7.50;;;;;;;;4986154;28;45573;-83
2023/04/23 09:29:58;;;;;;;;;8.75;8.75;;;;;;;;4982575;28;45969;-83
2023/04/23 09:32:32;;;;;;;;;7.00;7.00;;;;;;;;4993326;28;45576;-83
2023/04/23 09:34:57;;;;;;;;;7.00;6.00;;;;;;;;4983197;28;45504;-82
2023/04/23 09:37:25;;;;;;;;;12.75;8.00;;;;;;;;4987039;28;45422;-82
2023/04/23 09:39:52;;;;;;;;;8.25;8.25;;;;;;;;4989621;28;46378;-81
2023/04/23 09:42:22;;;;;;;;;11.00;7.75;;;;;;;;4979217;28;45376;-83
2023/04/23 09:44:54;;;;;;;;;7.00;7.00;;;;;;;;4975712;28;45530;-82
2023/04/23 09:47:19;;;;;;;;;10.00;8.50;;;;;;;;4974799;28;45810;-86
2023/04/23 09:49:46;;;;;;;;;6.00;5.00;;;;;;;;4983098;28;47108;-86
2023/04/23 09:52:12;;;;;;;;;8.25;8.25;;;;;;;;4979953;28;45462;-83
2023/04/23 09:54:37;;;;;;;;;8.75;8.25;;;;;;;;4982225;28;45768;-86
2023/04/23 09:57:05;;;;;;;;;9.00;8.50;;;;;;;;4982916;28;45712;-82
2023/04/23 09:59:31;;;;;;;;;6.00;6.00;;;;;;;;4987475;28;45940;-86
2023/04/23 10:02:00;;;;;;;;;8.00;7.75;;;;;;;;4993235;28;45311;-89
2023/04/23 10:04:25;;;;;;;;;7.50;7.50;;;;;;;;4978638;28;45281;-80
2023/04/23 10:06:54;;;;;;;;;6.00;6.00;;;;;;;;4990696;28;45292;-82
2023/04/23 10:09:23;;;;;;;;;5.00;5.00;;;;;;;;4984810;28;45519;-82
2023/04/23 10:11:50;;;;;;;;;5.75;5.75;;;;;;;;4982560;28;45458;-79
2023/04/23 10:14:15;;;;;;;;;8.50;7.00;;;;;;;;4988954;28;45461;-82
2023/04/23 10:16:42;;;;;;;;;4.75;4.75;;;;;;;;4979266;28;45366;-83
2023/04/23 10:19:08;;;;;;;;;7.25;7.00;;;;;;;;4988915;28;45481;-83
2023/04/23 10:21:33;;;;;;;;;9.00;8.00;;;;;;;;4986824;28;45428;-82
2023/04/23 10:24:00;;;;;;;;;5.00;5.00;;;;;;;;4980972;28;45453;-83
2023/04/23 10:26:26;;;;;;;;;4.75;4.75;;;;;;;;4991569;28;45539;-83
2023/04/23 10:28:53;;;;;;;;;7.00;7.00;;;;;;;;4980994;28;46201;-84
2023/04/23 10:31:18;;;;;;;;;4.00;2.25;;;;;;;;4987778;28;45324;-79
2023/04/23 10:33:44;;;;;;;;;6.00;5.50;;;;;;;;4989676;28;45329;-84
2023/04/23 10:36:09;;;;;;;;;6.00;6.00;;;;;;;;4981669;28;45591;-84
2023/04/23 10:38:35;;;;;;;;;7.50;5.00;;;;;;;;4997900;28;45376;-80
2023/04/23 10:41:01;;;;;;;;;6.00;6.00;;;;;;;;4983954;28;45338;-83
2023/04/23 10:43:27;;;;;;;;;6.50;6.50;;;;;;;;4989277;28;45483;-83
2023/04/23 10:45:52;;;;;;;;;5.00;5.00;;;;;;;;4996911;28;45396;-83
2023/04/23 10:48:18;;;;;;;;;6.50;5.25;;;;;;;;4974640;28;45604;-83
2023/04/23 10:50:46;;;;;;;;;6.00;4.25;;;;;;;;4990991;28;45423;-83
2023/04/23 10:53:18;;;;;;;;;3.25;2.00;;;;;;;;4982569;28;45495;-82
2023/04/23 10:55:43;;;;;;;;;2.00;2.00;;;;;;;;4982985;28;45392;-82
2023/04/23 10:58:09;;;;;;;;;5.50;4.25;;;;;;;;4990892;28;45371;-80
2023/04/23 11:00:42;;;;;;;;;2.25;2.25;;;;;;;;4976901;28;45456;-81
2023/04/23 11:03:25;;;;;;;;;4.75;4.75;;;;;;;;4988143;28;45411;-79
2023/04/23 11:05:51;;;;;;;;;6.00;6.00;;;;;;;;4988383;28;45281;-81
2023/04/23 11:08:16;;;;;;;;;6.75;6.75;;;;;;;;4977205;28;45373;-82
2023/04/23 11:11:00;;;;;;;;;6.00;5.00;;;;;;;;4991897;28;45541;-81
2023/04/23 11:13:27;;;;;;;;;4.00;4.00;;;;;;;;4985708;28;45254;-82
2023/04/23 11:16:10;;;;;;;;;5.00;5.00;;;;;;;;4982279;28;45398;-80
2023/04/23 11:18:55;;;;;;;;;5.00;5.00;;;;;;;;4991067;28;47378;-80
2023/04/23 11:21:20;;;;;;;;;4.00;4.00;;;;;;;;4974559;28;45290;-81
2023/04/23 11:23:45;;;;;;;;;4.00;4.00;;;;;;;;4982307;28;45427;-81
2023/04/23 11:26:13;;;;;;;;;2.00;2.00;;;;;;;;4990831;28;45452;-81
2023/04/23 11:28:41;;;;;;;;;5.00;4.00;;;;;;;;4978954;28;45444;-79
2023/04/23 11:31:08;;;;;;;;;5.25;5.00;;;;;;;;4988124;28;45361;-80
2023/04/23 11:33:33;;;;;;;;;2.00;2.00;;;;;;;;4986335;28;45435;-81
2023/04/23 11:36:01;;;;;;;;;5.25;5.25;;;;;;;;4993978;28;45464;-81
2023/04/23 11:38:30;;;;;;;;;9.50;7.50;;;;;;;;4978297;28;47616;-81
2023/04/23 11:40:55;;;;;;;;;12.00;7.75;;;;;;;;4989339;28;45468;-80
2023/04/23 11:43:21;;;;;;;;;9.75;7.25;;;;;;;;4980156;28;45497;-78
2023/04/23 11:45:48;;;;;;;;;4.25;4.25;;;;;;;;4987484;28;45263;-79
2023/04/23 11:48:13;;;;;;;;;7.25;5.50;;;;;;;;4976344;28;45324;-83
2023/04/23 11:50:40;;;;;;;;;7.25;5.00;;;;;;;;4992094;28;45337;-82
2023/04/23 11:53:10;;;;;;;;;7.50;6.00;;;;;;;;4976480;28;45333;-83
2023/04/23 11:55:35;;;;;;;;;5.00;5.00;;;;;;;;4981313;28;45480;-83
2023/04/23 11:58:01;;;;;;;;;6.00;6.00;;;;;;;;4989457;28;46174;-81
2023/04/23 12:00:26;;;;;;;;;1.50;1.50;;;;;;;;4978062;28;46378;-82
2023/04/23 12:02:55;;;;;;;;;3.00;3.00;;;;;;;;4989008;28;45446;-81
2023/04/23 12:05:21;;;;;;;;;3.25;2.00;;;;;;;;4986980;28;45468;-80
2023/04/23 12:07:50;;;;;;;;;4.00;4.00;;;;;;;;4998858;28;46167;-81
2023/04/23 12:10:16;;;;;;;;;2.00;2.00;;;;;;;;4982033;28;45392;-81
2023/04/23 12:12:41;;;;;;;;;2.00;2.00;;;;;;;;4994232;28;45467;-82
2023/04/23 12:15:07;;;;;;;;;3.00;3.00;;;;;;;;4982562;28;45531;-80
2023/04/23 12:17:32;;;;;;;;;4.00;4.00;;;;;;;;4989078;28;47123;-81
2023/04/23 12:19:57;;;;;;;;;3.00;3.00;;;;;;;;4985020;28;45463;-80
2023/04/23 12:22:27;;;;;;;;;2.00;1.00;;;;;;;;4994522;28;45357;-81
2023/04/23 12:24:53;;;;;;;;;1.00;1.00;;;;;;;;4983563;28;45406;-82
2023/04/23 12:27:21;;;;;;;;;0.00;0.00;;;;;;;;4977942;28;46990;-79
2023/04/23 12:29:46;;;;;;;;;0.00;0.00;;;;;;;;4991047;28;45393;-78
2023/04/23 12:32:12;;;;;;;;;1.00;1.00;;;;;;;;4982068;28;45437;-78
2023/04/23 12:34:51;;;;;;;;;1.00;1.00;;;;;;;;4993294;28;45384;-79
2023/04/23 12:37:17;;;;;;;;;0.75;0.00;;;;;;;;4987229;28;46562;-84
2023/04/23 12:39:42;;;;;;;;;0.00;0.00;;;;;;;;4985805;28;45415;-79
2023/04/23 12:42:09;;;;;;;;;0.00;0.00;;;;;;;;4992403;28;45434;-81
2023/04/23 12:44:35;;;;;;;;;0.00;0.00;;;;;;;;4978944;28;45433;-80
2023/04/23 12:47:03;;;;;;;;;1.75;0.00;;;;;;;;4975826;28;45658;-77
2023/04/23 12:49:29;;;;;;;;;1.00;0.00;;;;;;;;4974527;28;45401;-81
2023/04/23 12:51:56;;;;;;;;;0.00;0.00;;;;;;;;4980948;28;45328;-79
2023/04/23 12:54:22;;;;;;;;;0.00;0.00;;;;;;;;4994558;28;44955;-80
2023/04/23 12:56:47;;;;;;;;;0.00;0.00;;;;;;;;4981961;28;45694;-77
2023/04/23 12:59:13;;;;;;;;;0.00;0.00;;;;;;;;4989462;28;45559;-77
2023/04/23 13:01:38;;;;;;;;;0.00;0.00;;;;;;;;4981024;28;45743;-75
2023/04/23 13:04:03;;;;;;;;;0.00;0.00;;;;;;;;4980270;28;45433;-75
2023/04/23 13:06:28;;;;;;;;;0.00;0.00;;;;;;;;4993785;28;45451;-78
2023/04/23 13:08:54;;;;;;;;;0.25;0.25;;;;;;;;4982889;28;45392;-79
2023/04/23 13:11:19;;;;;;;;;0.00;0.00;;;;;;;;4988199;28;45563;-78
2023/04/23 13:13:44;;;;;;;;;0.00;0.00;;;;;;;;4990231;28;45388;-80
2023/04/23 13:16:10;;;;;;;;;0.00;0.00;;;;;;;;4981402;28;45535;-83
2023/04/23 13:18:35;;;;;;;;;0.00;0.00;;;;;;;;4966258;28;45496;-78
2023/04/23 13:21:01;;;;;;;;;0.00;0.00;;;;;;;;4986934;28;45512;-81
2023/04/23 13:23:26;;;;;;;;;0.00;0.00;;;;;;;;4976390;28;46082;-83
2023/04/23 13:25:51;;;;;;;;;1.00;0.00;;;;;;;;4977577;28;48882;-81
2023/04/23 13:28:16;;;;;;;;;0.00;0.00;;;;;;;;4978673;28;45389;-82
2023/04/23 13:30:41;;;;;;;;;0.00;0.00;;;;;;;;4994697;28;45365;-80
2023/04/23 13:33:06;;;;;;;;;0.00;0.00;;;;;;;;4987181;28;45504;-84
2023/04/23 13:35:32;;;;;;;;;0.00;0.00;;;;;;;;4975369;28;45698;-79
2023/04/23 13:37:57;;;;;;;;;0.00;0.00;;;;;;;;4990902;28;45357;-79
2023/04/23 13:40:23;;;;;;;;;0.00;0.00;;;;;;;;4980646;28;45389;-81
2023/04/23 13:42:49;;;;;;;;;0.00;0.00;;;;;;;;4995736;28;45435;-81
2023/04/23 13:45:14;;;;;;;;;0.00;0.00;;;;;;;;4988094;28;45734;-81
2023/04/23 13:47:40;;;;;;;;;0.00;0.00;;;;;;;;4986186;28;45445;-83
2023/04/23 13:50:06;;;;;;;;;0.00;0.00;;;;;;;;4991151;28;45297;-79
2023/04/23 13:52:31;;;;;;;;;0.00;0.00;;;;;;;;4983364;28;45380;-81
2023/04/23 13:54:59;;;;;;;;;0.00;0.00;;;;;;;;4992531;28;45341;-78
2023/04/23 13:57:25;;;;;;;;;0.00;0.00;;;;;;;;4990073;28;45391;-81
2023/04/23 13:59:50;;;;;;;;;0.00;0.00;;;;;;;;4984937;28;45424;-81
2023/04/23 14:02:15;;;;;;;;;0.00;0.00;;;;;;;;4992980;28;46063;-77
2023/04/23 14:04:40;;;;;;;;;0.00;0.00;;;;;;;;4976234;28;45480;-78
2023/04/23 14:07:06;;;;;;;;;1.00;0.00;;;;;;;;4983293;28;45509;-78
2023/04/23 14:09:31;;;;;;;;;0.00;0.00;;;;;;;;4984846;28;45491;-79
2023/04/23 14:11:57;;;;;;;;;0.00;0.00;;;;;;;;4991164;28;45404;-79
2023/04/23 14:14:22;;;;;;;;;0.00;0.00;;;;;;;;4979609;28;47159;-79
2023/04/23 14:16:47;;;;;;;;;0.00;0.00;;;;;;;;4984653;28;45372;-78
2023/04/23 14:19:12;;;;;;;;;0.00;0.00;;;;;;;;4987546;28;45355;-78
2023/04/23 14:21:38;;;;;;;;;0.00;0.00;;;;;;;;4987857;28;45454;-80
2023/04/23 14:24:23;;;;;;;;;0.00;0.00;;;;;;;;4981308;28;46636;-77
2023/04/23 14:26:48;;;;;;;;;0.00;0.00;;;;;;;;4964667;28;45505;-79
2023/04/23 14:29:19;;;;;;;;;1.00;0.00;;;;;;;;4984639;28;45419;-78
2023/04/23 14:31:45;;;;;;;;;0.00;0.00;;;;;;;;4983955;28;45498;-79
2023/04/23 14:34:10;;;;;;;;;0.25;0.00;;;;;;;;4990152;28;45467;-78
2023/04/23 14:36:35;;;;;;;;;0.00;0.00;;;;;;;;4979295;28;45418;-77